Time;durP1;ratioP1;P1;durP2;ratioP2;P2;SDS_P1;SDS_P2;PMS_P1;PMS_P2;Temp;Humidity;BMP_temperature;BMP_pressure;BME280_temperature;BME280_humidity;BME280_pressure;Samples;Min_cycle;Max_cycle;Signal;HPM_P1;HPM_P2
2023/05/16 00:01:59;;;;;;;3.10;1.02;;;13.90;99.90;;;;;;5037403;28;20041;-75
2023/05/16 00:04:25;;;;;;;3.78;1.27;;;13.70;99.90;;;;;;5040398;28;20068;-75
2023/05/16 00:06:51;;;;;;;1.23;0.50;;;13.60;99.90;;;;;;5037701;28;20083;-75
2023/05/16 00:09:16;;;;;;;2.67;1.17;;;13.60;99.90;;;;;;5042067;28;20541;-75
2023/05/16 00:11:42;;;;;;;1.67;0.73;;;13.60;99.90;;;;;;5044859;28;20029;-75
2023/05/16 00:14:08;;;;;;;2.75;0.80;;;13.70;99.90;;;;;;5042708;28;20025;-75
2023/05/16 00:16:35;;;;;;;1.80;0.80;;;13.70;99.90;;;;;;5039076;28;20476;-75
2023/05/16 00:19:01;;;;;;;1.70;0.90;;;13.80;99.90;;;;;;5038521;28;20421;-75
2023/05/16 00:21:27;;;;;;;2.13;0.70;;;14.00;99.90;;;;;;5041181;28;20029;-75
2023/05/16 00:23:52;;;;;;;3.20;0.98;;;14.00;99.90;;;;;;5043357;28;20028;-75
2023/05/16 00:26:18;;;;;;;1.60;0.70;;;13.80;99.90;;;;;;5033537;28;20037;-75
2023/05/16 00:28:44;;;;;;;5.43;0.90;;;13.80;99.90;;;;;;5036543;28;20041;-75
2023/05/16 00:31:10;;;;;;;2.78;1.00;;;13.80;99.90;;;;;;5035303;28;20076;-75
2023/05/16 00:33:35;;;;;;;2.22;1.13;;;13.70;99.90;;;;;;5047137;28;20039;-75
2023/05/16 00:36:01;;;;;;;1.85;0.75;;;13.70;99.90;;;;;;5034451;28;20091;-75
2023/05/16 00:38:27;;;;;;;1.90;0.80;;;13.60;99.90;;;;;;5045956;28;20025;-75
2023/05/16 00:40:52;;;;;;;4.55;0.70;;;13.70;99.80;;;;;;5035967;28;20036;-75
2023/05/16 00:43:18;;;;;;;1.52;0.73;;;14.10;98.70;;;;;;5035106;28;20036;-75
2023/05/16 00:45:44;;;;;;;1.83;0.90;;;14.00;98.60;;;;;;5038982;28;20107;-75
2023/05/16 00:48:13;;;;;;;1.45;0.70;;;14.00;98.10;;;;;;5040345;28;20063;-75
2023/05/16 00:50:39;;;;;;;2.70;1.23;;;14.20;97.60;;;;;;5037768;28;20494;-75
2023/05/16 00:53:05;;;;;;;3.10;0.95;;;14.20;97.60;;;;;;5037978;28;20033;-75
2023/05/16 00:55:31;;;;;;;2.25;1.05;;;14.20;97.70;;;;;;5049359;28;20390;-75
2023/05/16 00:57:58;;;;;;;2.40;0.73;;;14.30;96.90;;;;;;5037794;28;20032;-75
2023/05/16 01:00:24;;;;;;;1.50;0.70;;;14.40;97.00;;;;;;5034127;28;20086;-75
2023/05/16 01:02:52;;;;;;;1.10;0.60;;;14.30;97.00;;;;;;5045111;28;20048;-75
2023/05/16 01:05:18;;;;;;;3.13;0.82;;;14.10;97.60;;;;;;5039711;28;20029;-77
2023/05/16 01:07:44;;;;;;;3.15;0.90;;;14.10;96.90;;;;;;5046853;28;20072;-75
2023/05/16 01:10:10;;;;;;;1.42;0.68;;;14.00;97.70;;;;;;5043550;28;20861;-75
2023/05/16 01:12:42;;;;;;;1.30;0.85;;;13.90;98.40;;;;;;5034662;28;20021;-74
2023/05/16 01:15:14;;;;;;;1.50;0.80;;;13.60;98.70;;;;;;5038490;28;20061;-76
2023/05/16 01:17:40;;;;;;;1.80;0.77;;;13.40;99.20;;;;;;5036211;28;20072;-75
2023/05/16 01:20:15;;;;;;;6.50;1.20;;;13.10;99.90;;;;;;5034418;28;20073;-76
2023/05/16 01:22:44;;;;;;;2.20;1.00;;;12.90;99.90;;;;;;5038469;28;20120;-75
2023/05/16 01:25:13;;;;;;;2.03;0.98;;;12.90;99.90;;;;;;5037752;28;20029;-75
2023/05/16 01:27:40;;;;;;;3.20;0.80;;;12.90;99.90;;;;;;5033808;28;20029;-75
2023/05/16 01:30:17;;;;;;;1.98;0.65;;;13.00;99.80;;;;;;5034951;28;20038;-75
2023/05/16 01:32:43;;;;;;;1.63;0.77;;;12.90;99.90;;;;;;5033500;28;20509;-76
2023/05/16 01:35:12;;;;;;;1.23;0.70;;;13.50;98.30;;;;;;5043888;28;20041;-75
2023/05/16 01:38:01;;;;;;;1.38;0.70;;;13.60;97.50;;;;;;5038393;28;20032;-75
2023/05/16 01:40:43;;;;;;;2.88;1.00;;;13.70;98.00;;;;;;5041600;28;20049;-76
2023/05/16 01:43:15;;;;;;;1.63;0.88;;;14.00;96.70;;;;;;5042593;28;20025;-74
2023/05/16 01:45:59;;;;;;;2.00;0.85;;;14.00;96.40;;;;;;5033398;28;20017;-74
2023/05/16 01:48:34;;;;;;;2.67;1.00;;;14.20;96.40;;;;;;5041012;28;20425;-74
2023/05/16 01:51:00;;;;;;;1.63;0.98;;;14.50;95.50;;;;;;5038577;28;20480;-74
2023/05/16 01:53:32;;;;;;;0.95;0.50;;;14.60;95.20;;;;;;5043338;28;20029;-74
2023/05/16 01:56:00;;;;;;;3.30;0.90;;;14.50;95.90;;;;;;5037944;28;20059;-75
2023/05/16 01:58:30;;;;;;;1.40;0.52;;;14.30;95.70;;;;;;5039593;28;20036;-74
2023/05/16 02:01:04;;;;;;;2.67;0.93;;;14.10;96.30;;;;;;5041340;28;20056;-74
2023/05/16 02:03:30;;;;;;;1.50;0.65;;;14.50;95.00;;;;;;5046681;28;20458;-74
2023/05/16 02:05:56;;;;;;;1.42;0.60;;;14.50;95.20;;;;;;5038928;28;20071;-74
2023/05/16 02:08:27;;;;;;;2.70;1.13;;;14.30;95.20;;;;;;5041184;28;20021;-74
2023/05/16 02:10:53;;;;;;;2.08;0.80;;;14.30;95.00;;;;;;5045754;28;20047;-74
2023/05/16 02:13:18;;;;;;;1.95;0.90;;;14.40;95.00;;;;;;5033182;28;20025;-74
2023/05/16 02:15:44;;;;;;;2.42;0.77;;;14.40;95.10;;;;;;5041558;28;20063;-74
2023/05/16 02:18:11;;;;;;;2.35;1.05;;;14.00;96.50;;;;;;5042274;28;20057;-74
2023/05/16 02:20:37;;;;;;;1.50;0.80;;;13.80;96.50;;;;;;5038718;28;20475;-74
2023/05/16 02:23:02;;;;;;;1.17;0.80;;;13.60;97.10;;;;;;5041630;28;20028;-74
2023/05/16 02:25:28;;;;;;;2.20;0.80;;;13.60;96.40;;;;;;5034438;28;20033;-75
2023/05/16 02:27:55;;;;;;;1.17;0.60;;;13.90;95.90;;;;;;5051668;28;20489;-74
2023/05/16 02:30:21;;;;;;;1.55;0.68;;;14.00;95.60;;;;;;5041574;28;20045;-74
2023/05/16 02:32:47;;;;;;;2.38;0.98;;;14.30;94.60;;;;;;5042459;28;20502;-75
2023/05/16 02:35:14;;;;;;;4.32;1.13;;;14.40;94.60;;;;;;5048703;28;20029;-74
2023/05/16 02:37:40;;;;;;;1.85;0.90;;;14.60;94.50;;;;;;5042601;28;20155;-75
2023/05/16 02:40:09;;;;;;;2.72;0.80;;;14.60;94.50;;;;;;5041890;28;20104;-76
2023/05/16 02:42:34;;;;;;;1.65;0.90;;;14.70;93.80;;;;;;5039677;28;20104;-75
2023/05/16 02:45:00;;;;;;;1.92;0.90;;;14.70;94.20;;;;;;5041512;28;20112;-75
2023/05/16 02:47:26;;;;;;;1.90;0.93;;;14.40;94.90;;;;;;5034243;28;20021;-75
2023/05/16 02:49:51;;;;;;;2.00;0.80;;;14.50;94.40;;;;;;5038491;28;20441;-75
2023/05/16 02:52:20;;;;;;;1.08;0.65;;;14.60;94.20;;;;;;5040517;28;20033;-74
2023/05/16 02:54:46;;;;;;;1.95;0.88;;;14.50;94.50;;;;;;5041473;28;20034;-74
2023/05/16 02:57:12;;;;;;;1.85;0.80;;;14.30;94.60;;;;;;5039223;28;20487;-75
2023/05/16 02:59:38;;;;;;;1.27;0.52;;;14.20;95.10;;;;;;5036560;28;20056;-75
2023/05/16 03:02:03;;;;;;;2.13;0.75;;;14.40;94.30;;;;;;5042959;28;20037;-75
2023/05/16 03:04:29;;;;;;;1.13;0.60;;;14.30;95.40;;;;;;5030083;28;20029;-75
2023/05/16 03:06:55;;;;;;;2.35;0.88;;;14.00;95.20;;;;;;5030676;28;20190;-76
2023/05/16 03:09:20;;;;;;;0.77;0.40;;;14.40;94.00;;;;;;5031500;28;20042;-75
2023/05/16 03:11:46;;;;;;;3.17;0.85;;;14.60;93.60;;;;;;5037052;28;20037;-75
2023/05/16 03:14:12;;;;;;;1.83;0.70;;;14.70;93.60;;;;;;5037366;28;20021;-75
2023/05/16 03:16:38;;;;;;;2.45;1.05;;;14.60;94.00;;;;;;5029285;28;20029;-75
2023/05/16 03:19:04;;;;;;;2.28;0.95;;;14.60;94.40;;;;;;5029137;28;20030;-75
2023/05/16 03:21:30;;;;;;;1.95;0.75;;;14.40;95.30;;;;;;5038121;28;20044;-75
2023/05/16 03:23:57;;;;;;;2.40;1.00;;;14.30;94.70;;;;;;5036181;28;20183;-75
2023/05/16 03:26:23;;;;;;;1.80;0.80;;;14.30;94.80;;;;;;5033775;28;20029;-76
2023/05/16 03:28:50;;;;;;;4.30;0.73;;;14.40;94.40;;;;;;5031201;28;20029;-75
2023/05/16 03:31:16;;;;;;;1.70;0.70;;;14.40;94.70;;;;;;5029392;28;20033;-75
2023/05/16 03:33:42;;;;;;;2.38;0.95;;;14.40;94.30;;;;;;5037232;28;20032;-76
2023/05/16 03:36:08;;;;;;;1.75;0.70;;;14.50;94.10;;;;;;5037033;28;20028;-76
2023/05/16 03:38:34;;;;;;;1.20;0.60;;;14.50;94.40;;;;;;5035596;28;20714;-76
2023/05/16 03:41:00;;;;;;;1.63;0.75;;;14.50;94.00;;;;;;5040495;28;20055;-77
2023/05/16 03:43:26;;;;;;;1.10;0.70;;;14.40;94.80;;;;;;5040734;28;20116;-75
2023/05/16 03:45:51;;;;;;;2.85;1.05;;;14.30;94.60;;;;;;5032930;28;20032;-76
2023/05/16 03:48:17;;;;;;;3.50;0.60;;;14.40;94.30;;;;;;5034827;28;20034;-76
2023/05/16 03:50:43;;;;;;;1.95;0.80;;;14.50;93.90;;;;;;5039656;28;20037;-75
2023/05/16 03:53:09;;;;;;;1.88;0.95;;;14.60;94.00;;;;;;5034244;28;20104;-75
2023/05/16 03:55:35;;;;;;;1.23;0.60;;;14.60;94.40;;;;;;5036456;28;20036;-77
2023/05/16 03:58:00;;;;;;;1.15;0.60;;;14.60;93.90;;;;;;5040933;28;20037;-75
2023/05/16 04:00:26;;;;;;;2.03;0.93;;;14.50;94.10;;;;;;5028516;28;20032;-76
2023/05/16 04:02:52;;;;;;;2.03;0.93;;;14.50;93.80;;;;;;5036046;28;20055;-77
2023/05/16 04:05:17;;;;;;;2.40;0.73;;;14.80;93.40;;;;;;5031393;28;20029;-75
2023/05/16 04:07:43;;;;;;;2.33;0.80;;;14.80;93.70;;;;;;5029056;28;20444;-74
2023/05/16 04:10:09;;;;;;;2.35;0.80;;;14.70;94.10;;;;;;5028385;28;20039;-75
2023/05/16 04:12:35;;;;;;;2.08;0.68;;;14.60;93.80;;;;;;5034936;28;20029;-76
2023/05/16 04:15:02;;;;;;;1.08;0.52;;;15.20;92.20;;;;;;5030761;28;20029;-76
2023/05/16 04:17:28;;;;;;;6.10;1.23;;;15.70;91.60;;;;;;5031513;28;20040;-75
2023/05/16 04:19:54;;;;;;;1.83;0.75;;;16.00;91.30;;;;;;5032955;28;20029;-75
2023/05/16 04:22:21;;;;;;;1.20;0.75;;;15.80;91.80;;;;;;5033253;28;20415;-75
2023/05/16 04:24:47;;;;;;;2.30;0.85;;;15.50;92.30;;;;;;5035677;28;20029;-75
2023/05/16 04:27:13;;;;;;;2.78;1.10;;;15.30;92.80;;;;;;5028668;28;20045;-76
2023/05/16 04:29:39;;;;;;;1.98;0.93;;;15.40;92.70;;;;;;5039368;28;20040;-76
2023/05/16 04:32:06;;;;;;;2.45;0.70;;;15.20;92.80;;;;;;5028714;28;20103;-75
2023/05/16 04:34:32;;;;;;;1.33;0.70;;;15.10;93.10;;;;;;5026716;28;20033;-75
2023/05/16 04:36:58;;;;;;;1.25;0.60;;;15.00;93.60;;;;;;5031521;28;20048;-76
2023/05/16 04:39:24;;;;;;;1.23;0.70;;;15.60;91.50;;;;;;5030435;28;20072;-74
2023/05/16 04:41:50;;;;;;;1.65;0.75;;;15.50;92.70;;;;;;5035059;28;20044;-76
2023/05/16 04:44:16;;;;;;;1.88;0.88;;;15.20;93.10;;;;;;5034987;28;20378;-75
2023/05/16 04:46:41;;;;;;;3.00;0.90;;;15.00;93.30;;;;;;5031053;28;20025;-75
2023/05/16 04:49:07;;;;;;;1.95;0.68;;;14.90;93.70;;;;;;5032622;28;20029;-74
2023/05/16 04:51:33;;;;;;;0.75;0.50;;;15.50;91.40;;;;;;5031812;28;21978;-76
2023/05/16 04:53:59;;;;;;;1.75;0.98;;;15.90;90.80;;;;;;5024562;28;20048;-75
2023/05/16 04:56:28;;;;;;;2.60;0.63;;;16.00;91.00;;;;;;5027024;28;20044;-75
2023/05/16 04:58:54;;;;;;;1.35;0.85;;;15.60;92.40;;;;;;5036668;28;20025;-75
2023/05/16 05:01:20;;;;;;;2.08;0.82;;;15.40;92.00;;;;;;5022676;28;20393;-76
2023/05/16 05:03:46;;;;;;;1.27;0.50;;;15.50;92.00;;;;;;5024242;28;20050;-75
2023/05/16 05:06:11;;;;;;;1.70;0.80;;;16.00;90.80;;;;;;5033986;28;20132;-76
2023/05/16 05:08:37;;;;;;;1.33;0.68;;;16.30;90.40;;;;;;5034774;28;20044;-75
2023/05/16 05:11:03;;;;;;;0.98;0.52;;;16.40;90.20;;;;;;5032540;28;20040;-75
2023/05/16 05:13:28;;;;;;;1.13;0.77;;;16.30;90.80;;;;;;5027749;28;20025;-76
2023/05/16 05:15:54;;;;;;;1.50;0.60;;;16.20;91.90;;;;;;5035424;28;20032;-75
2023/05/16 05:18:19;;;;;;;1.70;0.90;;;16.20;91.10;;;;;;5032417;28;20029;-75
2023/05/16 05:20:45;;;;;;;1.17;0.60;;;16.00;92.00;;;;;;5036563;28;20031;-75
2023/05/16 05:23:11;;;;;;;1.75;0.75;;;15.90;91.90;;;;;;5038474;28;20037;-76
2023/05/16 05:25:37;;;;;;;2.13;0.75;;;16.00;91.10;;;;;;5029916;28;20135;-75
2023/05/16 05:28:03;;;;;;;2.92;0.73;;;16.20;90.70;;;;;;5028717;28;20033;-75
2023/05/16 05:30:29;;;;;;;2.15;0.82;;;16.00;91.60;;;;;;5028578;28;20045;-75
2023/05/16 05:32:55;;;;;;;2.50;0.60;;;16.00;91.50;;;;;;5040502;28;20036;-75
2023/05/16 05:35:20;;;;;;;1.90;1.00;;;16.10;91.20;;;;;;5038655;28;20035;-76
2023/05/16 05:37:46;;;;;;;2.60;0.60;;;16.00;91.20;;;;;;5032933;28;20043;-76
2023/05/16 05:40:12;;;;;;;3.30;1.35;;;16.00;91.90;;;;;;5034221;28;20403;-77
2023/05/16 05:42:37;;;;;;;1.20;0.60;;;15.90;91.90;;;;;;5039108;28;20275;-76
2023/05/16 05:45:04;;;;;;;1.10;0.60;;;16.00;92.20;;;;;;5030216;28;20057;-81
2023/05/16 05:47:29;;;;;;;1.38;0.75;;;15.80;92.90;;;;;;5034004;28;20037;-77
2023/05/16 05:49:55;;;;;;;1.02;0.60;;;15.80;92.90;;;;;;5037327;28;20052;-77
2023/05/16 05:52:21;;;;;;;0.85;0.50;;;15.90;92.70;;;;;;5040648;28;20021;-76
2023/05/16 05:54:47;;;;;;;1.33;0.70;;;15.90;91.90;;;;;;5035392;28;20036;-85
2023/05/16 05:57:13;;;;;;;3.90;0.60;;;16.00;91.80;;;;;;5036700;28;20123;-74
2023/05/16 05:59:38;;;;;;;1.30;0.57;;;16.00;91.80;;;;;;5044047;28;20033;-85
2023/05/16 06:02:04;;;;;;;1.65;0.70;;;15.80;93.40;;;;;;5037548;28;20486;-76
2023/05/16 06:04:30;;;;;;;2.60;0.68;;;15.70;92.50;;;;;;5042659;28;20509;-75
2023/05/16 06:06:56;;;;;;;1.83;0.70;;;15.60;93.90;;;;;;5031361;28;20033;-76
2023/05/16 06:09:21;;;;;;;1.75;1.05;;;15.60;93.10;;;;;;5032557;28;20037;-76
2023/05/16 06:11:47;;;;;;;2.47;0.70;;;15.40;95.00;;;;;;5039887;28;20486;-78
2023/05/16 06:14:14;;;;;;;2.08;0.90;;;15.00;97.40;;;;;;5036389;28;20399;-76
2023/05/16 06:16:40;;;;;;;1.67;0.80;;;14.80;97.60;;;;;;5042426;28;20035;-76
2023/05/16 06:19:06;;;;;;;1.67;0.88;;;14.80;97.10;;;;;;5037982;28;20029;-75
2023/05/16 06:21:33;;;;;;;1.27;0.70;;;14.60;99.30;;;;;;5039870;28;20527;-77
2023/05/16 06:23:58;;;;;;;2.10;0.90;;;14.40;97.20;;;;;;5033128;28;20038;-75
2023/05/16 06:26:24;;;;;;;3.58;0.70;;;14.40;99.60;;;;;;5031100;28;20032;-75
2023/05/16 06:28:50;;;;;;;1.67;0.68;;;14.40;98.30;;;;;;5038609;28;20036;-75
2023/05/16 06:31:15;;;;;;;3.58;0.90;;;14.50;98.10;;;;;;5035905;28;20038;-76
2023/05/16 06:33:41;;;;;;;1.38;0.63;;;14.20;99.90;;;;;;5035408;28;20120;-75
2023/05/16 06:36:07;;;;;;;3.05;1.30;;;13.90;99.90;;;;;;5030137;28;20030;-75
2023/05/16 06:38:32;;;;;;;2.17;0.80;;;14.00;99.90;;;;;;5035765;28;20028;-75
2023/05/16 06:40:58;;;;;;;3.35;0.75;;;14.20;99.90;;;;;;5038445;28;20029;-76
2023/05/16 06:43:24;;;;;;;3.45;1.00;;;14.30;99.90;;;;;;5041115;28;20029;-77
2023/05/16 06:45:49;;;;;;;2.10;0.80;;;14.10;99.90;;;;;;5029669;28;20033;-76
2023/05/16 06:48:17;;;;;;;2.70;1.10;;;14.20;99.90;;;;;;5029739;28;20031;-77
2023/05/16 06:50:46;;;;;;;1.95;0.98;;;14.20;99.90;;;;;;5031150;28;20041;-76
2023/05/16 06:53:11;;;;;;;1.85;0.90;;;14.10;99.90;;;;;;5037094;28;20029;-77
2023/05/16 06:55:37;;;;;;;1.17;0.80;;;14.30;99.50;;;;;;5029805;28;20041;-80
2023/05/16 06:58:03;;;;;;;2.80;1.20;;;14.40;97.90;;;;;;5033943;28;20022;-77
2023/05/16 07:00:28;;;;;;;2.50;1.25;;;14.20;99.90;;;;;;5036125;28;20037;-77
2023/05/16 07:02:54;;;;;;;3.22;1.05;;;14.10;98.90;;;;;;5040057;28;20041;-78
2023/05/16 07:05:20;;;;;;;3.05;1.55;;;14.10;99.90;;;;;;5038252;28;20024;-76
2023/05/16 07:07:46;;;;;;;1.50;0.65;;;14.10;99.90;;;;;;5034444;28;20035;-78
2023/05/16 07:10:11;;;;;;;1.65;0.80;;;14.40;99.20;;;;;;5034104;28;20094;-77
2023/05/16 07:12:41;;;;;;;5.95;1.45;;;14.40;99.80;;;;;;5026040;28;20116;-77
2023/05/16 07:15:07;;;;;;;1.95;0.85;;;14.10;99.90;;;;;;5028431;28;20183;-75
2023/05/16 07:17:33;;;;;;;3.35;1.23;;;14.20;99.90;;;;;;5028685;28;20040;-76
2023/05/16 07:19:59;;;;;;;2.78;1.00;;;14.30;99.90;;;;;;5038259;28;20029;-77
2023/05/16 07:22:25;;;;;;;1.63;0.80;;;14.30;99.90;;;;;;5041013;28;20096;-75
2023/05/16 07:24:53;;;;;;;2.53;0.95;;;14.40;99.90;;;;;;5034324;28;20049;-75
2023/05/16 07:27:18;;;;;;;1.75;0.75;;;14.40;99.90;;;;;;5035085;28;20035;-75
2023/05/16 07:29:44;;;;;;;2.17;0.90;;;14.40;99.10;;;;;;5031572;28;20041;-77
2023/05/16 07:32:10;;;;;;;2.13;1.10;;;14.60;98.60;;;;;;5028801;28;20579;-77
2023/05/16 07:34:36;;;;;;;2.95;1.02;;;14.60;99.00;;;;;;5025713;28;20033;-76
2023/05/16 07:37:02;;;;;;;1.45;0.77;;;14.60;99.20;;;;;;5027926;28;20039;-77
2023/05/16 07:39:27;;;;;;;2.25;0.75;;;14.60;98.60;;;;;;5032195;28;20057;-78
2023/05/16 07:41:53;;;;;;;1.73;0.90;;;14.70;99.10;;;;;;5032797;28;20102;-76
2023/05/16 07:44:19;;;;;;;2.03;0.93;;;14.80;97.50;;;;;;5035058;28;20052;-77
2023/05/16 07:46:44;;;;;;;1.88;1.00;;;14.80;97.90;;;;;;5026223;28;20041;-79
2023/05/16 07:49:10;;;;;;;1.95;1.08;;;14.70;99.60;;;;;;5031216;28;20037;-81
2023/05/16 07:51:36;;;;;;;1.48;0.82;;;14.80;98.30;;;;;;5035694;28;20034;-79
2023/05/16 07:54:01;;;;;;;2.00;0.90;;;14.70;97.80;;;;;;5028375;28;20479;-78
2023/05/16 07:56:27;;;;;;;2.00;0.90;;;14.80;97.40;;;;;;5036092;28;20025;-79
2023/05/16 07:58:53;;;;;;;2.25;1.20;;;14.80;98.30;;;;;;5032008;28;20060;-79
2023/05/16 08:01:19;;;;;;;2.30;1.20;;;14.80;97.80;;;;;;5025993;28;20415;-78
2023/05/16 08:03:45;;;;;;;3.40;1.17;;;14.90;97.40;;;;;;5029807;28;20052;-77
2023/05/16 08:06:10;;;;;;;25.95;4.13;;;14.90;97.40;;;;;;5028460;28;20040;-78
2023/05/16 08:08:36;;;;;;;3.13;0.93;;;15.10;99.90;;;;;;5031633;28;20086;-80
2023/05/16 08:11:02;;;;;;;3.67;1.20;;;15.10;96.80;;;;;;5029557;28;20033;-77
2023/05/16 08:13:28;;;;;;;2.90;1.00;;;15.00;97.40;;;;;;5040313;28;20060;-80
2023/05/16 08:15:54;;;;;;;7.15;1.73;;;14.80;98.20;;;;;;5033063;28;20032;-76
2023/05/16 08:18:20;;;;;;;3.75;1.13;;;15.00;99.90;;;;;;5038216;28;20043;-79
2023/05/16 08:20:46;;;;;;;2.35;1.17;;;15.00;99.20;;;;;;5027675;28;20045;-81
2023/05/16 08:23:11;;;;;;;2.40;0.90;;;14.70;99.40;;;;;;5039525;28;20446;-81
2023/05/16 08:25:37;;;;;;;2.03;0.90;;;14.50;99.90;;;;;;5028878;28;20079;-81
2023/05/16 08:28:03;;;;;;;2.00;0.93;;;14.10;99.90;;;;;;5029563;28;20036;-81
2023/05/16 08:30:29;;;;;;;4.05;1.42;;;13.90;99.90;;;;;;5030949;28;20082;-80
2023/05/16 08:32:54;;;;;;;4.90;1.30;;;13.70;99.90;;;;;;5034776;28;20025;-80
2023/05/16 08:35:20;;;;;;;5.88;1.30;;;13.90;99.90;;;;;;5030640;28;20025;-79
2023/05/16 08:37:45;;;;;;;7.53;1.63;;;13.20;99.90;;;;;;5033682;28;20033;-82
2023/05/16 08:40:13;;;;;;;5.72;1.55;;;12.90;99.90;;;;;;5027982;28;21251;-82
2023/05/16 08:42:38;;;;;;;4.43;1.60;;;12.50;99.90;;;;;;5030323;28;20037;-80
2023/05/16 08:45:06;;;;;;;5.13;1.88;;;12.50;99.90;;;;;;5038800;28;20036;-81
2023/05/16 08:47:33;;;;;;;2.58;1.40;;;12.40;99.90;;;;;;5027444;28;20024;-81
2023/05/16 08:50:01;;;;;;;7.38;1.35;;;12.60;99.90;;;;;;5040010;28;20048;-80
2023/05/16 08:52:30;;;;;;;3.33;1.45;;;13.00;99.90;;;;;;5029670;28;20034;-79
2023/05/16 08:55:00;;;;;;;3.08;1.45;;;13.00;99.90;;;;;;5035467;28;20025;-80
2023/05/16 08:57:26;;;;;;;3.30;1.40;;;12.80;99.90;;;;;;5034177;28;20075;-80
2023/05/16 08:59:53;;;;;;;2.75;1.40;;;13.10;99.90;;;;;;5028930;28;20059;-79
2023/05/16 09:02:21;;;;;;;4.22;1.42;;;13.00;99.90;;;;;;5035709;28;20052;-80
2023/05/16 09:04:48;;;;;;;2.17;1.10;;;13.00;99.90;;;;;;5025587;28;20037;-79
2023/05/16 09:07:13;;;;;;;6.22;1.25;;;12.70;99.90;;;;;;5031318;28;20036;-79
2023/05/16 09:09:40;;;;;;;3.83;1.45;;;12.50;99.90;;;;;;5033917;28;20813;-80
2023/05/16 09:12:06;;;;;;;1.83;0.98;;;12.70;99.90;;;;;;5036359;28;20353;-79
2023/05/16 09:14:32;;;;;;;3.00;1.17;;;12.80;99.90;;;;;;5032997;28;20425;-79
2023/05/16 09:17:06;;;;;;;3.25;1.52;;;12.90;99.90;;;;;;5031030;28;20086;-79
2023/05/16 09:19:37;;;;;;;4.72;1.52;;;12.90;99.90;;;;;;5030184;28;20032;-80
2023/05/16 09:22:03;;;;;;;3.78;1.73;;;12.90;99.90;;;;;;5026413;28;20025;-79
2023/05/16 09:24:29;;;;;;;3.15;1.60;;;13.10;99.90;;;;;;5035942;28;20036;-80
2023/05/16 09:26:55;;;;;;;4.55;1.67;;;13.10;99.90;;;;;;5023432;28;20124;-79
2023/05/16 09:29:21;;;;;;;3.30;1.58;;;12.90;99.90;;;;;;5029751;28;20132;-80
2023/05/16 09:31:48;;;;;;;2.47;1.58;;;12.80;99.90;;;;;;5029144;28;20116;-79
2023/05/16 09:34:14;;;;;;;6.07;1.95;;;12.90;99.90;;;;;;5031129;28;20056;-79
2023/05/16 09:36:40;;;;;;;5.18;1.60;;;12.80;99.90;;;;;;5032405;28;20032;-79
2023/05/16 09:39:06;;;;;;;2.53;1.38;;;12.60;99.90;;;;;;5024725;28;20052;-77
2023/05/16 09:41:33;;;;;;;3.58;1.50;;;12.60;99.90;;;;;;5041044;28;20037;-79
2023/05/16 09:44:04;;;;;;;3.25;1.65;;;12.60;99.90;;;;;;5026566;28;20036;-79
2023/05/16 09:46:32;;;;;;;2.80;1.50;;;12.70;99.90;;;;;;5024026;28;20033;-78
2023/05/16 09:48:58;;;;;;;3.28;1.60;;;12.80;99.90;;;;;;5024913;28;20030;-79
2023/05/16 09:51:23;;;;;;;5.05;1.38;;;12.80;99.90;;;;;;5023651;28;20068;-78
2023/05/16 09:53:49;;;;;;;3.40;1.70;;;12.80;99.90;;;;;;5025647;28;20056;-79
2023/05/16 09:56:15;;;;;;;3.63;1.40;;;12.90;99.90;;;;;;5036894;28;20124;-79
2023/05/16 09:58:43;;;;;;;2.90;1.50;;;13.00;99.90;;;;;;5030522;28;20080;-79
2023/05/16 10:01:09;;;;;;;5.68;2.08;;;13.00;99.90;;;;;;5032354;28;20036;-78
2023/05/16 10:03:37;;;;;;;7.05;2.22;;;13.30;99.90;;;;;;5032282;28;20052;-78
2023/05/16 10:06:04;;;;;;;5.32;2.25;;;13.50;99.90;;;;;;5023930;28;20051;-78
2023/05/16 10:08:35;;;;;;;3.13;1.50;;;13.70;99.90;;;;;;5028981;28;20041;-79
2023/05/16 10:11:02;;;;;;;3.28;1.65;;;13.90;99.90;;;;;;5031818;28;20041;-80
2023/05/16 10:13:30;;;;;;;7.38;3.90;;;14.10;99.90;;;;;;5043217;28;20517;-79
2023/05/16 10:15:58;;;;;;;8.57;4.18;;;14.20;99.90;;;;;;5027366;28;20033;-77
2023/05/16 10:18:33;;;;;;;3.63;2.35;;;14.20;99.90;;;;;;5028524;28;20044;-79
2023/05/16 10:21:09;;;;;;;4.10;2.22;;;14.20;99.90;;;;;;5032813;28;20037;-79
2023/05/16 10:23:36;;;;;;;3.47;1.95;;;14.10;99.90;;;;;;5036028;28;20033;-79
2023/05/16 10:26:04;;;;;;;3.30;1.90;;;14.00;99.90;;;;;;5031358;28;20512;-79
2023/05/16 10:28:31;;;;;;;3.55;2.03;;;13.60;99.90;;;;;;5037052;28;20036;-79
2023/05/16 10:30:58;;;;;;;2.42;1.48;;;13.50;99.90;;;;;;5032860;28;20479;-78
2023/05/16 10:33:23;;;;;;;3.20;1.70;;;13.70;99.90;;;;;;5032005;28;20526;-78
2023/05/16 10:35:49;;;;;;;3.40;1.88;;;13.70;99.90;;;;;;5029177;28;20035;-78
2023/05/16 10:38:17;;;;;;;3.78;1.52;;;13.80;99.90;;;;;;5030008;28;20029;-78
2023/05/16 10:40:43;;;;;;;4.85;1.85;;;13.90;99.90;;;;;;5031491;28;20045;-77
2023/05/16 10:43:09;;;;;;;3.10;1.67;;;13.90;99.90;;;;;;5031230;28;20032;-78
2023/05/16 10:45:41;;;;;;;3.92;1.83;;;13.80;99.90;;;;;;5030807;28;20528;-78
2023/05/16 10:48:09;;;;;;;5.50;1.25;;;13.80;99.90;;;;;;5038306;28;20053;-77
2023/05/16 10:50:43;;;;;;;2.45;1.13;;;13.80;99.90;;;;;;5032603;28;20036;-78
2023/05/16 10:53:19;;;;;;;4.72;1.70;;;13.80;99.90;;;;;;5038583;28;20033;-78
2023/05/16 10:56:08;;;;;;;3.08;1.10;;;13.90;99.90;;;;;;5034618;28;20525;-78
2023/05/16 10:58:34;;;;;;;4.32;1.30;;;14.10;99.90;;;;;;5037226;28;20100;-78
2023/05/16 11:01:15;;;;;;;2.08;1.20;;;14.30;99.90;;;;;;5032326;28;20135;-78
2023/05/16 11:03:56;;;;;;;2.35;0.98;;;14.50;99.90;;;;;;5037558;28;20037;-78
2023/05/16 11:06:41;;;;;;;2.15;1.30;;;14.50;99.90;;;;;;5031005;28;20037;-78
2023/05/16 11:09:10;;;;;;;2.20;1.20;;;14.30;99.90;;;;;;5037197;28;20042;-79
2023/05/16 11:11:45;;;;;;;2.05;1.20;;;14.10;99.90;;;;;;5037159;28;20457;-78
2023/05/16 11:14:36;;;;;;;4.75;1.77;;;14.10;99.90;;;;;;5027820;28;20026;-78
2023/05/16 11:17:20;;;;;;;2.65;1.38;;;14.10;99.90;;;;;;5033625;28;20032;-79
2023/05/16 11:19:59;;;;;;;;;;;14.30;99.90;;;;;;5037452;28;20535;-79
2023/05/16 11:22:29;;;;;;;1.90;1.00;;;14.30;99.90;;;;;;5038055;28;19909;-78
2023/05/16 11:25:03;;;;;;;2.47;1.10;;;14.40;99.90;;;;;;5036896;28;20083;-79
2023/05/16 11:27:47;;;;;;;2.63;1.30;;;14.50;99.90;;;;;;5027644;28;20087;-78
2023/05/16 11:30:14;;;;;;;;;;;14.50;99.90;;;;;;5037199;28;20037;-78
2023/05/16 11:32:42;;;;;;;2.25;1.05;;;14.40;99.90;;;;;;5030966;28;20032;-79
2023/05/16 11:35:14;;;;;;;2.05;0.90;;;14.20;99.90;;;;;;5039824;28;20044;-79
2023/05/16 11:37:39;;;;;;;2.70;1.17;;;14.40;99.90;;;;;;5039856;28;20029;-79
2023/05/16 11:40:08;;;;;;;1.70;0.93;;;14.30;99.90;;;;;;5030834;28;20484;-78
2023/05/16 11:42:40;;;;;;;3.65;1.98;;;14.10;99.90;;;;;;5027120;28;20053;-78
2023/05/16 11:45:13;;;;;;;1.55;0.90;;;14.20;99.90;;;;;;5033386;28;20059;-79
2023/05/16 11:47:40;;;;;;;1.97;0.97;;;14.40;99.90;;;;;;5039159;28;20033;-78
2023/05/16 11:50:13;;;;;;;1.85;0.98;;;14.40;99.90;;;;;;5034008;28;20337;-79
2023/05/16 11:52:42;;;;;;;3.20;1.17;;;14.50;99.90;;;;;;5030852;28;20038;-78
2023/05/16 11:55:10;;;;;;;2.63;1.25;;;14.50;99.90;;;;;;5032114;28;20025;-78
2023/05/16 11:57:43;;;;;;;2.45;1.08;;;14.50;99.90;;;;;;5032541;28;20064;-78
2023/05/16 12:00:16;;;;;;;2.45;1.08;;;14.20;99.90;;;;;;5035157;28;20025;-78
2023/05/16 12:02:43;;;;;;;4.80;2.03;;;14.30;99.90;;;;;;5040704;28;20082;-80
2023/05/16 12:05:10;;;;;;;2.60;1.33;;;14.90;99.90;;;;;;5036958;28;20029;-79
2023/05/16 12:07:36;;;;;;;2.15;0.93;;;14.80;99.90;;;;;;5036239;28;20029;-78
2023/05/16 12:10:06;;;;;;;2.03;1.15;;;14.80;99.90;;;;;;5040395;28;20514;-78
2023/05/16 12:12:32;;;;;;;2.03;1.23;;;14.90;99.90;;;;;;5039526;28;20025;-78
2023/05/16 12:14:58;;;;;;;2.70;1.00;;;15.00;99.90;;;;;;5030811;28;20040;-79
2023/05/16 12:17:24;;;;;;;3.22;1.15;;;15.10;99.90;;;;;;5033263;28;20524;-78
2023/05/16 12:19:50;;;;;;;2.80;1.23;;;15.00;99.90;;;;;;5033681;28;20037;-78
2023/05/16 12:22:24;;;;;;;2.03;0.98;;;15.30;99.90;;;;;;5035758;28;20040;-78
2023/05/16 12:24:50;;;;;;;;;;;15.30;99.90;;;;;;5033246;28;20026;-78
2023/05/16 12:27:28;;;;;;;2.38;0.90;;;15.40;99.90;;;;;;5038077;28;19909;-78
2023/05/16 12:29:57;;;;;;;2.35;0.90;;;15.50;99.90;;;;;;5027301;28;20045;-78
2023/05/16 12:32:23;;;;;;;5.95;1.15;;;15.60;99.90;;;;;;5030715;28;20353;-78
2023/05/16 12:34:50;;;;;;;1.90;0.90;;;15.70;99.90;;;;;;5031737;28;20034;-78
2023/05/16 12:37:16;;;;;;;2.75;0.98;;;15.80;99.90;;;;;;5040599;28;20111;-78
2023/05/16 12:39:42;;;;;;;1.77;0.75;;;15.70;99.90;;;;;;5037309;28;20156;-78
2023/05/16 12:42:08;;;;;;;1.85;0.80;;;15.60;99.90;;;;;;5034073;28;20037;-78
2023/05/16 12:44:34;;;;;;;1.67;0.70;;;15.70;99.90;;;;;;5040755;28;20041;-78
2023/05/16 12:47:01;;;;;;;1.23;0.60;;;15.70;99.90;;;;;;5035860;28;20025;-78
2023/05/16 12:49:27;;;;;;;3.40;1.45;;;15.70;99.90;;;;;;5028957;28;20395;-77